createdAt,value
2019-02-04T00:01:49.638Z,3.60
2019-02-04T00:04:16.420Z,3.00
2019-02-04T00:06:43.317Z,2.70
2019-02-04T00:09:10.071Z,3.10
2019-02-04T00:11:36.799Z,3.00
2019-02-04T00:14:03.642Z,2.67
2019-02-04T00:16:40.338Z,2.67
2019-02-04T00:18:58.894Z,3.27
2019-02-04T00:21:25.695Z,3.40
2019-02-04T00:23:52.433Z,3.57
2019-02-04T00:26:19.165Z,4.33
2019-02-04T00:28:46.056Z,4.30
2019-02-04T00:31:12.810Z,5.33
2019-02-04T00:33:39.619Z,4.77
2019-02-04T00:36:06.496Z,5.70
2019-02-04T00:38:33.237Z,5.73
2019-02-04T00:40:59.988Z,5.07
2019-02-04T00:43:26.866Z,3.27
2019-02-04T00:45:53.601Z,4.60
2019-02-04T00:48:20.313Z,4.20
2019-02-04T00:50:47.500Z,4.87
2019-02-04T00:53:14.203Z,4.30
2019-02-04T00:55:41.027Z,4.47
2019-02-04T00:58:07.805Z,4.27
2019-02-04T01:00:34.547Z,5.13
2019-02-04T01:03:01.320Z,4.53
2019-02-04T01:05:28.179Z,3.80
2019-02-04T01:07:56.017Z,3.90
2019-02-04T01:10:27.933Z,3.33
2019-02-04T01:12:54.828Z,3.37
2019-02-04T01:15:21.566Z,3.50
2019-02-04T01:17:48.289Z,2.63
2019-02-04T01:20:29.694Z,3.10
2019-02-04T01:22:56.944Z,2.90
2019-02-04T01:25:23.713Z,3.50
2019-02-04T01:27:50.709Z,2.90
2019-02-04T01:30:20.542Z,3.70
2019-02-04T01:32:47.268Z,2.87
2019-02-04T01:35:14.222Z,2.67
2019-02-04T01:37:41.313Z,2.10
2019-02-04T01:40:16.541Z,2.63
2019-02-04T01:42:43.292Z,2.53
2019-02-04T01:45:10.036Z,3.50
2019-02-04T01:47:36.835Z,2.60
2019-02-04T01:50:08.375Z,2.10
2019-02-04T01:52:35.432Z,2.03
2019-02-04T01:55:02.925Z,2.60
2019-02-04T01:57:29.652Z,3.37
2019-02-04T01:59:56.378Z,2.87
2019-02-04T02:02:23.186Z,3.43
2019-02-04T02:04:49.942Z,3.10
2019-02-04T02:07:16.716Z,2.83
2019-02-04T02:09:44.017Z,2.97
2019-02-04T02:12:10.829Z,3.00
2019-02-04T02:14:37.588Z,3.33
2019-02-04T02:17:04.393Z,4.20
2019-02-04T02:19:31.115Z,3.90
2019-02-04T02:21:57.837Z,3.10
2019-02-04T02:24:24.639Z,2.20
2019-02-04T02:26:51.344Z,2.53
2019-02-04T02:29:18.119Z,3.83
2019-02-04T02:31:44.991Z,5.23
2019-02-04T02:34:11.756Z,4.40
2019-02-04T02:36:38.545Z,4.67
2019-02-04T02:39:06.637Z,4.50
2019-02-04T02:41:33.365Z,4.40
2019-02-04T02:44:00.146Z,2.80
2019-02-04T02:46:27.225Z,2.40
2019-02-04T02:48:53.999Z,3.10
2019-02-04T02:51:20.705Z,3.33
2019-02-04T02:53:47.613Z,4.50
2019-02-04T02:56:14.350Z,4.20
2019-02-04T02:58:41.144Z,3.30
2019-02-04T03:01:07.953Z,2.63
2019-02-04T03:03:34.677Z,2.73
2019-02-04T03:06:01.403Z,3.57
2019-02-04T03:08:28.263Z,2.97
2019-02-04T03:10:55.011Z,3.50
2019-02-04T03:13:21.752Z,3.77
2019-02-04T03:15:48.601Z,4.00
2019-02-04T03:18:15.339Z,2.60
2019-02-04T03:20:42.065Z,2.87
2019-02-04T03:23:08.938Z,2.10
2019-02-04T03:25:35.653Z,2.43
2019-02-04T03:28:02.404Z,2.40
2019-02-04T03:30:31.812Z,2.40
2019-02-04T03:32:58.644Z,2.60
2019-02-04T03:35:25.383Z,2.03
2019-02-04T03:37:52.657Z,2.40
2019-02-04T03:40:28.561Z,2.50
2019-02-04T03:42:55.429Z,2.47
2019-02-04T03:45:22.178Z,2.67
2019-02-04T03:47:48.918Z,2.70
2019-02-04T03:50:15.798Z,3.23
2019-02-04T03:52:42.532Z,3.73
2019-02-04T03:55:11.685Z,3.77
2019-02-04T03:57:38.574Z,3.20
2019-02-04T04:00:31.376Z,4.20
2019-02-04T04:02:58.137Z,4.40
2019-02-04T04:05:25.265Z,5.60
2019-02-04T04:07:53.467Z,5.90
2019-02-04T04:10:20.671Z,7.10
2019-02-04T04:12:47.391Z,12.57
2019-02-04T04:15:15.624Z,11.30
2019-02-04T04:17:42.506Z,8.17
2019-02-04T04:20:14.988Z,8.97
2019-02-04T04:22:41.842Z,7.57
2019-02-04T04:25:14.129Z,7.27
2019-02-04T04:27:40.990Z,5.90
2019-02-04T04:30:21.061Z,5.77
2019-02-04T04:32:47.825Z,6.50
2019-02-04T04:35:14.873Z,5.27
2019-02-04T04:37:41.882Z,5.33
2019-02-04T04:40:11.047Z,6.67
2019-02-04T04:42:37.800Z,8.47
2019-02-04T04:45:17.300Z,8.17
2019-02-04T04:47:44.035Z,6.20
2019-02-04T04:50:11.193Z,6.00
2019-02-04T04:52:38.020Z,6.27
2019-02-04T04:55:21.407Z,6.63
2019-02-04T04:57:48.353Z,7.20
2019-02-04T05:00:22.218Z,12.23
2019-02-04T05:02:48.947Z,14.40
2019-02-04T05:05:15.831Z,10.70
2019-02-04T05:07:42.582Z,9.73
2019-02-04T05:10:18.607Z,9.03
2019-02-04T05:12:45.348Z,8.80
2019-02-04T05:15:23.294Z,11.53
2019-02-04T05:17:52.425Z,9.10
2019-02-04T05:20:18.529Z,7.83
2019-02-04T05:22:45.453Z,9.80
2019-02-04T05:25:12.972Z,10.00
2019-02-04T05:27:39.708Z,9.57
2019-02-04T05:30:22.400Z,12.10
2019-02-04T05:32:49.134Z,13.93
2019-02-04T05:35:15.845Z,14.03
2019-02-04T05:37:43.954Z,13.63
2019-02-04T05:40:14.995Z,13.10
2019-02-04T05:42:41.838Z,14.40
2019-02-04T05:45:12.331Z,14.53
2019-02-04T05:47:39.050Z,13.53
2019-02-04T05:50:10.126Z,11.23
2019-02-04T05:52:36.942Z,10.03
2019-02-04T05:55:05.287Z,10.40
2019-02-04T05:57:32.022Z,11.33
2019-02-04T05:59:59.208Z,10.50
2019-02-04T06:02:25.939Z,10.03
2019-02-04T06:04:53.073Z,13.70
2019-02-04T06:07:19.942Z,12.20
2019-02-04T06:09:46.691Z,23.07
2019-02-04T06:12:13.436Z,13.70
2019-02-04T06:14:40.241Z,10.50
2019-02-04T06:17:07.291Z,15.33
2019-02-04T06:19:34.508Z,12.83
2019-02-04T06:22:01.341Z,66.77
2019-02-04T06:24:28.148Z,32.20
2019-02-04T06:26:54.890Z,12.10
2019-02-04T06:29:21.716Z,11.43
2019-02-04T06:31:48.466Z,11.27
2019-02-04T06:34:17.441Z,11.17
2019-02-04T06:36:44.335Z,10.97
2019-02-04T06:39:11.162Z,14.30
2019-02-04T06:41:37.920Z,15.60
2019-02-04T06:44:04.801Z,17.67
2019-02-04T06:46:31.496Z,16.50
2019-02-04T06:48:58.250Z,11.47
2019-02-04T06:51:25.024Z,7.90
2019-02-04T06:53:51.838Z,9.57
2019-02-04T06:56:18.620Z,12.00
2019-02-04T06:58:45.401Z,16.40
2019-02-04T07:01:12.167Z,23.53
2019-02-04T07:03:38.893Z,25.40
2019-02-04T07:06:05.758Z,18.03
2019-02-04T07:08:32.527Z,13.27
2019-02-04T07:10:59.664Z,7.13
2019-02-04T07:13:26.441Z,5.80
2019-02-04T07:15:53.173Z,15.03
2019-02-04T07:18:19.909Z,24.23
2019-02-04T07:20:46.747Z,25.60
2019-02-04T07:23:13.513Z,27.20
2019-02-04T07:25:40.238Z,10.37
2019-02-04T07:28:07.025Z,21.37
2019-02-04T07:30:34.163Z,19.83
2019-02-04T07:33:00.871Z,95.03
2019-02-04T07:35:27.778Z,47.03
2019-02-04T07:37:54.520Z,54.90
2019-02-04T07:40:28.537Z,31.77
2019-02-04T07:42:55.466Z,14.10
2019-02-04T07:45:25.843Z,12.37
2019-02-04T07:47:56.743Z,11.60
2019-02-04T07:50:23.941Z,12.47
2019-02-04T07:52:50.707Z,11.20
2019-02-04T07:55:17.411Z,12.93
2019-02-04T07:57:44.305Z,12.50
2019-02-04T08:00:24.415Z,6.47
2019-02-04T08:02:51.306Z,6.73
2019-02-04T08:05:18.004Z,13.10
2019-02-04T08:07:44.781Z,12.90
2019-02-04T08:10:13.843Z,14.23
2019-02-04T08:12:40.596Z,12.33
2019-02-04T08:15:17.982Z,8.70
2019-02-04T08:17:44.735Z,10.10
2019-02-04T08:20:11.592Z,10.90
2019-02-04T08:22:38.427Z,8.90
2019-02-04T08:25:13.287Z,6.67
2019-02-04T08:27:40.152Z,8.73
2019-02-04T08:30:18.537Z,9.33
2019-02-04T08:32:45.459Z,8.77
2019-02-04T08:35:12.201Z,9.70
2019-02-04T08:37:38.924Z,10.37
2019-02-04T08:40:13.719Z,9.87
2019-02-04T08:42:40.483Z,9.17
2019-02-04T08:45:10.329Z,7.53
2019-02-04T08:47:37.210Z,24.67
2019-02-04T08:50:08.870Z,13.63
2019-02-04T08:52:35.619Z,8.30
2019-02-04T08:55:02.714Z,7.37
2019-02-04T08:57:29.440Z,7.13
2019-02-04T08:59:56.158Z,9.50
2019-02-04T09:02:23.047Z,4.63
2019-02-04T09:04:49.909Z,6.20
2019-02-04T09:07:16.655Z,6.07
2019-02-04T09:09:43.509Z,7.60
2019-02-04T09:12:10.260Z,7.27
2019-02-04T09:14:36.997Z,6.10
2019-02-04T09:17:03.810Z,4.40
2019-02-04T09:19:30.553Z,18.53
2019-02-04T09:21:57.272Z,6.63
2019-02-04T09:24:24.404Z,5.37
2019-02-04T09:26:51.128Z,4.90
2019-02-04T09:29:17.875Z,3.47
2019-02-04T09:31:44.702Z,3.40
2019-02-04T09:34:11.543Z,4.20
2019-02-04T09:36:38.306Z,4.10
2019-02-04T09:39:07.233Z,4.00
2019-02-04T09:41:34.310Z,3.43
2019-02-04T09:44:01.046Z,4.10
2019-02-04T09:46:27.867Z,4.13
2019-02-04T09:48:54.633Z,4.10
2019-02-04T09:51:21.353Z,3.67
2019-02-04T09:53:48.261Z,3.33
2019-02-04T09:56:14.978Z,5.13
2019-02-04T09:58:41.772Z,5.17
2019-02-04T10:01:09.013Z,4.67
2019-02-04T10:03:35.706Z,4.33
2019-02-04T10:06:02.440Z,6.33
2019-02-04T10:08:29.347Z,6.50
2019-02-04T10:10:56.092Z,11.23
2019-02-04T10:13:22.838Z,11.17
2019-02-04T10:15:49.639Z,7.53
2019-02-04T10:18:16.934Z,7.27
2019-02-04T10:20:43.647Z,4.87
2019-02-04T10:23:10.497Z,4.20
2019-02-04T10:25:41.531Z,3.70
2019-02-04T10:28:09.859Z,3.33
2019-02-04T10:30:36.735Z,3.63
2019-02-04T10:33:03.477Z,3.30
2019-02-04T10:35:30.640Z,3.23
2019-02-04T10:37:57.497Z,2.93
2019-02-04T10:40:29.173Z,3.37
2019-02-04T10:42:55.991Z,2.70
2019-02-04T10:45:22.902Z,2.60
2019-02-04T10:47:49.695Z,3.33
2019-02-04T10:50:29.370Z,3.00
2019-02-04T10:52:59.917Z,2.90
2019-02-04T10:55:26.620Z,3.10
2019-02-04T10:57:53.561Z,2.57
2019-02-04T11:00:30.371Z,2.80
2019-02-04T11:02:57.244Z,2.40
2019-02-04T11:05:34.298Z,2.90
2019-02-04T11:08:01.066Z,3.47
2019-02-04T11:10:28.537Z,2.90
2019-02-04T11:12:55.256Z,3.10
2019-02-04T11:15:22.112Z,4.23
2019-02-04T11:17:48.879Z,2.80
2019-02-04T11:20:27.584Z,2.47
2019-02-04T11:22:54.338Z,2.73
2019-02-04T11:25:21.068Z,2.50
2019-02-04T11:27:47.953Z,2.30
2019-02-04T11:30:22.377Z,2.80
2019-02-04T11:32:49.594Z,3.40
2019-02-04T11:35:16.322Z,2.43
2019-02-04T11:37:43.092Z,3.00
2019-02-04T11:40:24.647Z,4.63
2019-02-04T11:42:51.405Z,3.53
2019-02-04T11:45:18.256Z,3.27
2019-02-04T11:47:45.695Z,2.80
2019-02-04T11:50:13.692Z,6.00
2019-02-04T11:52:40.416Z,3.00
2019-02-04T11:55:16.153Z,3.90
2019-02-04T11:57:43.611Z,8.07
2019-02-04T12:00:30.194Z,7.90
2019-02-04T12:02:59.127Z,2.80
2019-02-04T12:05:25.866Z,6.40
2019-02-04T12:07:52.770Z,2.50
2019-02-04T12:10:29.632Z,5.97
2019-02-04T12:12:56.866Z,2.83
2019-02-04T12:15:23.627Z,10.43
2019-02-04T12:17:50.364Z,2.87
2019-02-04T12:20:17.769Z,6.70
2019-02-04T12:22:44.483Z,2.90
2019-02-04T12:25:15.849Z,3.17
2019-02-04T12:27:42.702Z,2.40
2019-02-04T12:30:15.141Z,2.20
2019-02-04T12:32:41.906Z,2.47
2019-02-04T12:35:11.283Z,1.87
2019-02-04T12:37:38.612Z,2.10
2019-02-04T12:40:09.984Z,1.90
2019-02-04T12:42:36.822Z,2.00
2019-02-04T12:45:15.556Z,2.20
2019-02-04T12:47:42.510Z,1.73
2019-02-04T12:50:11.356Z,2.20
2019-02-04T12:52:38.091Z,2.13
2019-02-04T12:55:10.286Z,2.40
2019-02-04T12:57:37.027Z,2.37
2019-02-04T13:00:12.192Z,1.70
2019-02-04T13:02:39.109Z,2.00
2019-02-04T13:05:13.814Z,1.80
2019-02-04T13:07:40.546Z,1.70
2019-02-04T13:10:11.873Z,1.63
2019-02-04T13:12:39.418Z,1.87
2019-02-04T13:15:11.563Z,1.90
2019-02-04T13:17:38.385Z,2.53
2019-02-04T13:20:09.482Z,1.90
2019-02-04T13:22:36.200Z,2.37
2019-02-04T13:25:07.104Z,1.90
2019-02-04T13:27:34.106Z,2.00
2019-02-04T13:30:00.869Z,2.20
2019-02-04T13:32:27.694Z,2.13
2019-02-04T13:34:54.445Z,2.10
2019-02-04T13:37:21.196Z,2.27
2019-02-04T13:39:47.985Z,2.03
2019-02-04T13:42:14.744Z,1.97
2019-02-04T13:44:41.849Z,2.07
2019-02-04T13:47:08.697Z,2.50
2019-02-04T13:49:35.431Z,2.30
2019-02-04T13:52:02.158Z,1.90
2019-02-04T13:54:29.076Z,2.00
2019-02-04T13:56:55.827Z,1.80
2019-02-04T13:59:22.561Z,2.00
2019-02-04T14:01:49.456Z,2.40
2019-02-04T14:04:16.188Z,6.17
2019-02-04T14:06:42.942Z,3.87
2019-02-04T14:09:14.559Z,2.40
2019-02-04T14:11:41.303Z,2.30
2019-02-04T14:14:08.106Z,2.30
2019-02-04T14:16:34.983Z,3.77
2019-02-04T14:19:02.035Z,3.50
2019-02-04T14:21:28.829Z,3.03
2019-02-04T14:23:55.703Z,3.00
2019-02-04T14:26:22.473Z,3.83
2019-02-04T14:28:49.239Z,7.37
2019-02-04T14:31:16.107Z,8.07
2019-02-04T14:33:42.865Z,9.00
2019-02-04T14:36:09.646Z,10.27
2019-02-04T14:38:36.521Z,15.03
2019-02-04T14:41:03.307Z,10.40
2019-02-04T14:43:30.433Z,26.00
2019-02-04T14:46:20.790Z,23.33
2019-02-04T14:48:58.873Z,20.17
2019-02-04T14:51:58.453Z,17.23
2019-02-04T14:54:54.311Z,12.13
2019-02-04T14:57:38.719Z,9.77
2019-02-04T15:00:22.728Z,16.43
2019-02-04T15:03:19.821Z,17.80
2019-02-04T15:06:22.305Z,7.90
2019-02-04T15:09:16.331Z,11.27
2019-02-04T15:12:00.449Z,15.73
2019-02-04T15:15:11.071Z,18.33
2019-02-04T15:17:43.265Z,18.60
2019-02-04T15:20:42.851Z,15.33
2019-02-04T15:23:27.104Z,22.13
2019-02-04T15:26:08.426Z,33.93
2019-02-04T15:28:52.130Z,23.53
2019-02-04T15:31:45.534Z,19.80
2019-02-04T15:34:43.094Z,21.40
2019-02-04T15:37:23.596Z,22.23
2019-02-04T15:39:58.866Z,18.37
2019-02-04T15:42:52.855Z,21.47
2019-02-04T15:46:01.241Z,12.20
2019-02-04T15:48:36.316Z,12.63
2019-02-04T15:53:52.565Z,53.10
2019-02-04T15:56:22.519Z,39.70
2019-02-04T15:58:49.264Z,24.70
2019-02-04T16:01:16.185Z,25.90
2019-02-04T16:03:42.954Z,11.50
2019-02-04T16:06:09.744Z,14.23
2019-02-04T16:08:36.655Z,22.60
2019-02-04T16:11:03.804Z,22.80
2019-02-04T16:13:30.564Z,30.97
2019-02-04T16:15:57.483Z,29.90
2019-02-04T16:18:24.255Z,24.93
2019-02-04T16:20:51.064Z,24.23
2019-02-04T16:23:18.009Z,24.43
2019-02-04T16:25:44.813Z,20.63
2019-02-04T16:28:11.588Z,18.93
2019-02-04T16:30:38.433Z,20.20
2019-02-04T16:33:05.223Z,21.63
2019-02-04T16:35:32.022Z,19.80
2019-02-04T16:37:58.952Z,15.13
2019-02-04T16:40:26.025Z,12.10
2019-02-04T16:42:52.921Z,10.27
2019-02-04T16:45:22.884Z,13.57
2019-02-04T16:47:50.259Z,17.10
2019-02-04T16:50:23.399Z,15.60
2019-02-04T16:52:50.377Z,16.13
2019-02-04T16:55:17.285Z,18.77
2019-02-04T16:57:44.064Z,16.33
2019-02-04T17:00:15.853Z,12.23
2019-02-04T17:02:43.106Z,18.50
2019-02-04T17:05:13.178Z,18.83
2019-02-04T17:07:40.122Z,16.20
2019-02-04T17:10:24.501Z,18.57
2019-02-04T17:12:51.540Z,18.40
2019-02-04T17:15:18.321Z,19.47
2019-02-04T17:17:45.318Z,21.30
2019-02-04T17:20:31.691Z,59.40
2019-02-04T17:22:58.495Z,64.43
2019-02-04T17:25:25.462Z,39.10
2019-02-04T17:27:52.408Z,34.30
2019-02-04T17:30:22.412Z,22.43
2019-02-04T17:32:49.230Z,20.07
2019-02-04T17:35:16.154Z,17.57
2019-02-04T17:37:42.982Z,20.07
2019-02-04T17:40:14.091Z,14.97
2019-02-04T17:42:40.926Z,15.63
2019-02-04T17:45:14.062Z,16.37
2019-02-04T17:47:40.967Z,19.87
2019-02-04T17:50:14.408Z,24.07
2019-02-04T17:52:43.129Z,18.50
2019-02-04T17:55:16.235Z,14.93
2019-02-04T17:57:43.046Z,17.70
2019-02-04T18:00:20.501Z,13.37
2019-02-04T18:02:47.415Z,20.50
2019-02-04T18:05:14.442Z,21.17
2019-02-04T18:07:41.538Z,21.77
2019-02-04T18:10:21.121Z,24.23
2019-02-04T18:12:50.293Z,15.57
2019-02-04T18:15:21.950Z,16.53
2019-02-04T18:17:48.825Z,13.47
2019-02-04T18:20:15.825Z,20.63
2019-02-04T18:22:42.610Z,19.80
2019-02-04T18:25:19.374Z,18.57
2019-02-04T18:27:46.704Z,22.77
2019-02-04T18:30:25.378Z,19.30
2019-02-04T18:32:52.189Z,20.33
2019-02-04T18:35:19.495Z,16.83
2019-02-04T18:37:46.455Z,17.80
2019-02-04T18:40:19.223Z,18.33
2019-02-04T18:42:46.440Z,17.40
2019-02-04T18:45:28.084Z,20.83
2019-02-04T18:47:54.907Z,18.77
2019-02-04T18:50:22.330Z,15.57
2019-02-04T18:52:49.784Z,26.37
2019-02-04T18:55:26.700Z,18.80
2019-02-04T18:57:53.683Z,15.37
2019-02-04T19:00:28.992Z,15.87
2019-02-04T19:02:56.048Z,14.57
2019-02-04T19:05:22.844Z,14.43
2019-02-04T19:07:49.645Z,11.53
2019-02-04T19:10:19.987Z,10.30
2019-02-04T19:12:46.795Z,10.70
2019-02-04T19:15:16.496Z,10.30
2019-02-04T19:17:43.358Z,11.17
2019-02-04T19:20:14.903Z,9.67
2019-02-04T19:22:41.700Z,8.30
2019-02-04T19:25:12.633Z,9.73
2019-02-04T19:27:39.420Z,10.30
2019-02-04T19:30:14.485Z,7.80
2019-02-04T19:32:41.410Z,7.83
2019-02-04T19:35:09.834Z,6.67
2019-02-04T19:37:36.622Z,7.07
2019-02-04T19:40:08.634Z,8.40
2019-02-04T19:42:35.409Z,10.73
2019-02-04T19:45:06.305Z,13.70
2019-02-04T19:47:33.077Z,15.43
2019-02-04T19:49:59.889Z,14.80
2019-02-04T19:52:26.881Z,14.23
2019-02-04T19:54:53.819Z,13.70
2019-02-04T19:57:20.614Z,13.90
2019-02-04T19:59:47.436Z,11.97
2019-02-04T20:02:14.257Z,13.17
2019-02-04T20:04:41.045Z,11.97
2019-02-04T20:07:09.656Z,11.93
2019-02-04T20:09:37.242Z,12.10
2019-02-04T20:12:04.045Z,12.37
2019-02-04T20:14:30.868Z,12.40
2019-02-04T20:16:57.823Z,8.33
2019-02-04T20:19:24.613Z,9.47
2019-02-04T20:21:51.426Z,9.00
2019-02-04T20:24:18.367Z,7.90
2019-02-04T20:26:45.160Z,8.57
2019-02-04T20:29:12.345Z,8.20
2019-02-04T20:31:39.294Z,7.43
2019-02-04T20:34:06.117Z,8.20
2019-02-04T20:36:32.917Z,6.10
2019-02-04T20:38:59.861Z,6.87
2019-02-04T20:41:26.639Z,7.10
2019-02-04T20:43:53.436Z,7.30
2019-02-04T20:46:20.276Z,8.67
2019-02-04T20:48:47.482Z,6.83
2019-02-04T20:51:14.274Z,7.07
2019-02-04T20:53:41.195Z,7.37
2019-02-04T20:56:08.176Z,6.40
2019-02-04T20:58:34.965Z,6.40
2019-02-04T21:01:01.906Z,6.60
2019-02-04T21:03:28.694Z,5.30
2019-02-04T21:05:55.484Z,4.63
2019-02-04T21:08:22.493Z,4.40
2019-02-04T21:10:49.320Z,5.90
2019-02-04T21:13:16.122Z,6.00
2019-02-04T21:15:43.065Z,6.00
2019-02-04T21:18:09.862Z,5.80
2019-02-04T21:20:36.654Z,7.33
2019-02-04T21:23:03.591Z,8.23
2019-02-04T21:25:30.814Z,8.47
2019-02-04T21:27:57.598Z,7.90
2019-02-04T21:30:27.542Z,7.10
2019-02-04T21:32:54.339Z,7.50
2019-02-04T21:35:21.134Z,8.57
2019-02-04T21:37:48.097Z,6.63
2019-02-04T21:40:16.998Z,7.67
2019-02-04T21:42:44.169Z,4.47
2019-02-04T21:45:23.190Z,5.97
2019-02-04T21:47:49.973Z,5.80
2019-02-04T21:50:24.110Z,6.07
2019-02-04T21:52:50.970Z,6.13
2019-02-04T21:55:17.858Z,7.20
2019-02-04T21:57:44.873Z,5.27
2019-02-04T22:00:21.724Z,5.33
2019-02-04T22:02:48.522Z,4.70
2019-02-04T22:05:19.045Z,5.37
2019-02-04T22:07:45.933Z,5.10
2019-02-04T22:10:16.830Z,4.57
2019-02-04T22:12:43.624Z,4.07
2019-02-04T22:15:10.468Z,4.60
2019-02-04T22:17:37.266Z,4.10
2019-02-04T22:20:14.494Z,4.10
2019-02-04T22:22:41.262Z,4.60
2019-02-04T22:25:19.450Z,3.57
2019-02-04T22:27:39.698Z,4.10
2019-02-04T22:30:16.412Z,4.40
2019-02-04T22:32:43.251Z,5.57
2019-02-04T22:35:10.331Z,7.37
2019-02-04T22:37:37.107Z,5.40
2019-02-04T22:40:18.276Z,4.03
2019-02-04T22:42:45.068Z,4.20
2019-02-04T22:45:14.949Z,3.40
2019-02-04T22:47:41.831Z,3.70
2019-02-04T22:50:24.813Z,3.60
2019-02-04T22:52:51.854Z,3.73
2019-02-04T22:55:18.651Z,3.63
2019-02-04T22:57:45.455Z,2.80
2019-02-04T23:01:10.768Z,2.87
2019-02-04T23:03:37.548Z,3.33
2019-02-04T23:06:04.349Z,3.13
2019-02-04T23:08:31.195Z,3.20
2019-02-04T23:10:57.989Z,3.47
2019-02-04T23:13:24.757Z,3.17
2019-02-04T23:15:53.987Z,2.70
2019-02-04T23:18:20.585Z,2.90
2019-02-04T23:20:47.378Z,3.17
2019-02-04T23:23:14.241Z,3.90
2019-02-04T23:25:43.554Z,3.60
2019-02-04T23:28:09.612Z,3.10
2019-02-04T23:30:36.473Z,3.23
2019-02-04T23:33:03.956Z,2.50
2019-02-04T23:35:30.755Z,2.60
2019-02-04T23:37:57.679Z,2.50
2019-02-04T23:40:24.468Z,2.33
2019-02-04T23:42:51.246Z,3.30
2019-02-04T23:45:18.123Z,3.40
2019-02-04T23:47:44.922Z,3.73
2019-02-04T23:50:14.917Z,3.73
2019-02-04T23:52:41.826Z,3.60
2019-02-04T23:55:10.280Z,4.00
2019-02-04T23:57:37.067Z,3.73
